createdAt,value
2022-11-05T00:05:14.047Z,96817.00
2022-11-05T00:10:54.272Z,96822.00
2022-11-05T00:16:13.184Z,96831.00
2022-11-05T00:21:32.437Z,96831.00
2022-11-05T00:26:33.242Z,96829.00
2022-11-05T00:31:37.022Z,96838.00
2022-11-05T00:36:37.760Z,96843.00
2022-11-05T00:41:38.470Z,96855.00
2022-11-05T00:46:39.705Z,96861.00
2022-11-05T00:52:54.842Z,96862.00
2022-11-05T00:57:56.838Z,96855.00
2022-11-05T01:03:16.210Z,96865.00
2022-11-05T01:08:19.282Z,96880.00
2022-11-05T01:13:30.320Z,96890.00
2022-11-05T01:18:31.248Z,96887.00
2022-11-05T01:23:36.387Z,96901.00
2022-11-05T01:28:37.749Z,96907.00
2022-11-05T01:33:41.618Z,96914.00
2022-11-05T01:38:44.657Z,96917.00
2022-11-05T01:44:04.028Z,96920.00
2022-11-05T01:49:28.756Z,96919.00
2022-11-05T01:54:40.604Z,96924.00
2022-11-05T01:59:55.785Z,96931.00
2022-11-05T02:05:06.475Z,96932.00
2022-11-05T02:10:14.100Z,96943.00
2022-11-05T02:15:22.965Z,96945.00
2022-11-05T02:20:37.956Z,96937.00
2022-11-05T02:29:11.298Z,96945.00
2022-11-05T02:34:34.798Z,96939.00
2022-11-05T02:43:16.127Z,96954.00
2022-11-05T02:48:30.453Z,96959.00
2022-11-05T02:54:06.388Z,96948.00
2022-11-05T02:59:21.269Z,96955.00
2022-11-05T03:04:23.953Z,96962.00
2022-11-05T03:10:15.151Z,96952.00
2022-11-05T03:17:11.596Z,96961.00
2022-11-05T03:22:24.684Z,96971.00
2022-11-05T03:27:41.836Z,96985.00
2022-11-05T03:32:49.333Z,96977.00
2022-11-05T03:38:17.444Z,96988.00
2022-11-05T03:43:26.661Z,96990.00
2022-11-05T03:48:41.834Z,96990.00
2022-11-05T03:53:49.162Z,97001.00
2022-11-05T03:58:58.845Z,97005.00
2022-11-05T04:04:00.051Z,97002.00
2022-11-05T04:09:22.187Z,97008.00
2022-11-05T04:14:23.278Z,97016.00
2022-11-05T04:19:49.119Z,97014.00
2022-11-05T04:24:50.565Z,97021.00
2022-11-05T04:30:09.843Z,97025.00
2022-11-05T04:35:10.921Z,97020.00
2022-11-05T04:40:11.673Z,97027.00
2022-11-05T04:45:29.600Z,97033.00
2022-11-05T04:50:31.281Z,97036.00
2022-11-05T04:55:42.016Z,97043.00
2022-11-05T05:00:48.812Z,97047.00
2022-11-05T05:05:54.029Z,97055.00
2022-11-05T05:10:55.042Z,97061.00
2022-11-05T05:16:08.349Z,97066.00
2022-11-05T05:21:27.483Z,97072.00
2022-11-05T05:26:28.539Z,97080.00
2022-11-05T05:31:29.676Z,97074.00
2022-11-05T05:36:31.238Z,97077.00
2022-11-05T05:41:46.335Z,97076.00
2022-11-05T05:46:47.209Z,97088.00
2022-11-05T05:51:48.797Z,97083.00
2022-11-05T05:56:49.513Z,97092.00
2022-11-05T06:01:53.523Z,97092.00
2022-11-05T06:06:57.817Z,97095.00
2022-11-05T06:12:03.487Z,97095.00
2022-11-05T06:17:10.753Z,97100.00
2022-11-05T06:22:11.752Z,97103.00
2022-11-05T06:27:12.674Z,97117.00
2022-11-05T06:32:13.492Z,97122.00
2022-11-05T06:37:14.286Z,97120.00
2022-11-05T06:42:25.901Z,97120.00
2022-11-05T06:47:27.016Z,97132.00
2022-11-05T06:52:30.440Z,97146.00
2022-11-05T06:57:40.511Z,97153.00
2022-11-05T07:02:41.316Z,97154.00
2022-11-05T07:07:47.228Z,97175.00
2022-11-05T07:12:47.948Z,97178.00
2022-11-05T07:17:52.023Z,97190.00
2022-11-05T07:23:10.659Z,97188.00
2022-11-05T07:28:16.103Z,97200.00
2022-11-05T07:33:16.924Z,97213.00
2022-11-05T07:38:21.376Z,97224.00
2022-11-05T07:43:30.239Z,97232.00
2022-11-05T07:48:34.406Z,97238.00
2022-11-05T07:53:45.767Z,97241.00
2022-11-05T07:58:46.711Z,97246.00
2022-11-05T08:03:50.488Z,97255.00
2022-11-05T08:08:51.221Z,97250.00
2022-11-05T08:13:51.967Z,97256.00
2022-11-05T08:18:53.058Z,97257.00
2022-11-05T08:23:57.692Z,97254.00
2022-11-05T08:29:08.078Z,97265.00
2022-11-05T08:34:11.994Z,97251.00
2022-11-05T08:39:22.849Z,97268.00
2022-11-05T08:44:23.753Z,97272.00
2022-11-05T08:49:25.243Z,97274.00
2022-11-05T08:54:26.240Z,97277.00
2022-11-05T08:59:36.834Z,97288.00
2022-11-05T09:04:37.632Z,97297.00
2022-11-05T09:09:38.554Z,97301.00
2022-11-05T09:14:39.405Z,97297.00
2022-11-05T09:19:40.339Z,97317.00
2022-11-05T09:24:48.015Z,97308.00
2022-11-05T09:29:48.791Z,97319.00
2022-11-05T09:35:04.730Z,97321.00
2022-11-05T09:40:17.310Z,97326.00
2022-11-05T09:45:25.774Z,97332.00
2022-11-05T09:50:44.778Z,97333.00
2022-11-05T09:55:49.749Z,97335.00
2022-11-05T10:00:55.160Z,97342.00
2022-11-05T10:06:04.964Z,97353.00
2022-11-05T10:11:17.213Z,97356.00
2022-11-05T10:16:42.027Z,97373.00
2022-11-05T10:22:05.472Z,97375.00
2022-11-05T10:27:14.514Z,97373.00
2022-11-05T10:32:34.295Z,97365.00
2022-11-05T10:37:44.100Z,97363.00
2022-11-05T10:43:00.897Z,97374.00
2022-11-05T10:48:57.043Z,97372.00
2022-11-05T10:54:17.415Z,97374.00
2022-11-05T10:59:32.534Z,97367.00
2022-11-05T11:04:37.668Z,97367.00
2022-11-05T11:09:48.924Z,97379.00
2022-11-05T11:15:01.505Z,97375.00
2022-11-05T11:20:21.513Z,97372.00
2022-11-05T11:25:51.543Z,97381.00
2022-11-05T11:31:16.132Z,97371.00
2022-11-05T11:36:48.645Z,97371.00
2022-11-05T11:42:05.097Z,97369.00
2022-11-05T11:47:16.062Z,97369.00
2022-11-05T11:52:31.913Z,97365.00
2022-11-05T11:57:53.073Z,97370.00
2022-11-05T12:03:19.594Z,97368.00
2022-11-05T12:10:10.444Z,97362.00
2022-11-05T12:15:43.262Z,97363.00
2022-11-05T12:21:34.566Z,97370.00
2022-11-05T12:27:16.515Z,97365.00
2022-11-05T12:34:01.311Z,97363.00
2022-11-05T12:39:43.622Z,97361.00
2022-11-05T12:45:00.879Z,97362.00
2022-11-05T12:50:23.700Z,97365.00
2022-11-05T12:56:03.848Z,97357.00
2022-11-05T13:01:20.576Z,97359.00
2022-11-05T13:06:34.216Z,97365.00
2022-11-05T13:16:46.927Z,97370.00
2022-11-05T13:23:27.788Z,97363.00
2022-11-05T13:31:48.466Z,97348.00
2022-11-05T13:37:19.107Z,97350.00
2022-11-05T13:43:00.444Z,97355.00
2022-11-05T13:48:32.704Z,97361.00
2022-11-05T13:54:14.667Z,97358.00
2022-11-05T13:59:38.864Z,97361.00
2022-11-05T14:05:10.235Z,97371.00
2022-11-05T14:10:43.712Z,97361.00
2022-11-05T14:22:51.206Z,97358.00
2022-11-05T14:27:57.656Z,97367.00
2022-11-05T14:33:15.575Z,97350.00
2022-11-05T14:38:33.707Z,97350.00
2022-11-05T14:43:47.011Z,97342.00
2022-11-05T14:49:09.653Z,97357.00
2022-11-05T14:54:48.169Z,97351.00
2022-11-05T14:59:59.931Z,97346.00
2022-11-05T15:12:08.379Z,97332.00
2022-11-05T15:17:22.729Z,97344.00
2022-11-05T15:22:38.718Z,97341.00
2022-11-05T15:29:43.411Z,97344.00
2022-11-05T15:34:52.538Z,97342.00
2022-11-05T15:40:00.328Z,97328.00
2022-11-05T15:45:01.326Z,97331.00
2022-11-05T15:50:22.020Z,97330.00
2022-11-05T15:55:24.920Z,97340.00
2022-11-05T16:00:29.320Z,97353.00
2022-11-05T16:05:53.881Z,97339.00
2022-11-05T16:10:58.191Z,97335.00
2022-11-05T16:16:45.708Z,97347.00
2022-11-05T16:22:09.925Z,97356.00
2022-11-05T16:27:19.633Z,97359.00
2022-11-05T16:32:30.715Z,97360.00
2022-11-05T16:37:39.143Z,97358.00
2022-11-05T16:42:40.900Z,97361.00
2022-11-05T16:47:43.656Z,97374.00
2022-11-05T16:52:45.969Z,97378.00
2022-11-05T16:57:54.679Z,97380.00
2022-11-05T17:02:55.785Z,97395.00
2022-11-05T17:07:57.478Z,97378.00
2022-11-05T17:12:58.362Z,97392.00
2022-11-05T17:17:59.161Z,97397.00
2022-11-05T17:23:01.050Z,97399.00
2022-11-05T17:28:02.572Z,97406.00
2022-11-05T17:33:04.456Z,97394.00
2022-11-05T17:38:05.306Z,97396.00
2022-11-05T17:43:07.486Z,97396.00
2022-11-05T17:48:09.747Z,97398.00
2022-11-05T17:53:15.758Z,97389.00
2022-11-05T17:58:16.834Z,97399.00
2022-11-05T18:03:17.609Z,97411.00
2022-11-05T18:08:18.422Z,97418.00
2022-11-05T18:13:19.242Z,97415.00
2022-11-05T18:18:21.113Z,97421.00
2022-11-05T18:23:22.199Z,97422.00
2022-11-05T18:28:23.134Z,97420.00
2022-11-05T18:33:23.915Z,97420.00
2022-11-05T18:38:24.831Z,97424.00
2022-11-05T18:43:26.571Z,97413.00
2022-11-05T18:48:27.653Z,97421.00
2022-11-05T18:53:31.578Z,97423.00
2022-11-05T18:58:36.443Z,97426.00
2022-11-05T19:03:37.168Z,97430.00
2022-11-05T19:08:38.383Z,97427.00
2022-11-05T19:13:47.299Z,97424.00
2022-11-05T19:18:49.022Z,97418.00
2022-11-05T19:23:51.362Z,97418.00
2022-11-05T19:29:02.146Z,97413.00
2022-11-05T19:34:04.535Z,97413.00
2022-11-05T19:39:08.272Z,97413.00
2022-11-05T19:44:09.156Z,97414.00
2022-11-05T19:49:10.490Z,97400.00
2022-11-05T19:54:11.796Z,97400.00
2022-11-05T19:59:16.474Z,97411.00
2022-11-05T20:04:17.192Z,97416.00
2022-11-05T20:09:23.598Z,97411.00
2022-11-05T20:14:25.482Z,97404.00
2022-11-05T20:19:26.214Z,97402.00
2022-11-05T20:24:29.756Z,97392.00
2022-11-05T20:29:35.365Z,97392.00
2022-11-05T20:34:36.907Z,97395.00
2022-11-05T20:39:37.668Z,97392.00
2022-11-05T20:44:38.544Z,97393.00
2022-11-05T20:49:39.260Z,97396.00
2022-11-05T20:54:40.219Z,97394.00
2022-11-05T20:59:41.053Z,97406.00
2022-11-05T21:04:41.998Z,97404.00
2022-11-05T21:09:42.744Z,97413.00
2022-11-05T21:14:46.449Z,97411.00
2022-11-05T21:19:47.173Z,97410.00
2022-11-05T21:24:47.933Z,97413.00
2022-11-05T21:29:48.725Z,97414.00
2022-11-05T21:34:49.612Z,97413.00
2022-11-05T21:39:50.405Z,97412.00
2022-11-05T21:44:53.939Z,97413.00
2022-11-05T21:49:57.180Z,97415.00
2022-11-05T21:55:22.877Z,97429.00
2022-11-05T22:00:24.031Z,97434.00
2022-11-05T22:05:25.877Z,97443.00
2022-11-05T22:10:26.653Z,97426.00
2022-11-05T22:15:27.809Z,97417.00
2022-11-05T22:20:28.641Z,97412.00
2022-11-05T22:25:29.412Z,97409.00
2022-11-05T22:30:34.741Z,97425.00
2022-11-05T22:35:41.061Z,97419.00
2022-11-05T22:40:45.168Z,97411.00
2022-11-05T22:45:45.939Z,97419.00
2022-11-05T22:50:49.729Z,97423.00
2022-11-05T22:55:50.462Z,97414.00
2022-11-05T23:00:51.355Z,97417.00
2022-11-05T23:07:39.835Z,97398.00
2022-11-05T23:12:42.753Z,97411.00
2022-11-05T23:18:07.849Z,97404.00
2022-11-05T23:23:28.035Z,97403.00
2022-11-05T23:28:28.811Z,97397.00
2022-11-05T23:33:33.100Z,97396.00
2022-11-05T23:38:37.360Z,97383.00
2022-11-05T23:43:56.612Z,97383.00
2022-11-05T23:48:57.585Z,97379.00
2022-11-05T23:53:58.485Z,97383.00
2022-11-05T23:58:59.717Z,97374.00
